sensor_id;sensor_type;location;lat;lon;timestamp;P1;durP1;ratioP1;P2;durP2;ratioP2
82387;SDS011;72027;47.420;9.310;2024-03-07T00:00:13;6.50;;;4.55;;
82387;SDS011;72027;47.420;9.310;2024-03-07T00:02:45;7.97;;;4.20;;
82387;SDS011;72027;47.420;9.310;2024-03-07T00:05:15;6.13;;;4.57;;
82387;SDS011;72027;47.420;9.310;2024-03-07T00:07:44;6.80;;;4.55;;
82387;SDS011;72027;47.420;9.310;2024-03-07T00:10:12;8.77;;;4.97;;
82387;SDS011;72027;47.420;9.310;2024-03-07T00:12:43;8.18;;;5.63;;
82387;SDS011;72027;47.420;9.310;2024-03-07T00:15:12;7.25;;;5.05;;
82387;SDS011;72027;47.420;9.310;2024-03-07T00:17:40;7.80;;;5.47;;
82387;SDS011;72027;47.420;9.310;2024-03-07T00:20:09;8.30;;;5.53;;
82387;SDS011;72027;47.420;9.310;2024-03-07T00:22:41;8.95;;;5.68;;
82387;SDS011;72027;47.420;9.310;2024-03-07T00:25:09;10.70;;;6.63;;
82387;SDS011;72027;47.420;9.310;2024-03-07T00:27:41;9.32;;;6.40;;
82387;SDS011;72027;47.420;9.310;2024-03-07T00:30:12;8.93;;;6.93;;
82387;SDS011;72027;47.420;9.310;2024-03-07T00:32:44;8.30;;;5.80;;
82387;SDS011;72027;47.420;9.310;2024-03-07T00:35:13;14.18;;;8.15;;
82387;SDS011;72027;47.420;9.310;2024-03-07T00:37:41;12.10;;;8.30;;
82387;SDS011;72027;47.420;9.310;2024-03-07T00:40:09;16.00;;;9.30;;
82387;SDS011;72027;47.420;9.310;2024-03-07T00:42:37;10.73;;;8.13;;
82387;SDS011;72027;47.420;9.310;2024-03-07T00:45:05;13.38;;;8.30;;
82387;SDS011;72027;47.420;9.310;2024-03-07T00:47:35;12.07;;;8.48;;
82387;SDS011;72027;47.420;9.310;2024-03-07T00:50:05;13.20;;;8.10;;
82387;SDS011;72027;47.420;9.310;2024-03-07T00:52:35;17.27;;;10.25;;
82387;SDS011;72027;47.420;9.310;2024-03-07T00:55:02;15.93;;;10.45;;
82387;SDS011;72027;47.420;9.310;2024-03-07T00:57:31;18.90;;;10.63;;
82387;SDS011;72027;47.420;9.310;2024-03-07T00:59:59;19.45;;;10.77;;
82387;SDS011;72027;47.420;9.310;2024-03-07T01:02:26;18.80;;;10.88;;
82387;SDS011;72027;47.420;9.310;2024-03-07T01:04:56;18.48;;;10.18;;
82387;SDS011;72027;47.420;9.310;2024-03-07T01:07:24;18.10;;;10.10;;
82387;SDS011;72027;47.420;9.310;2024-03-07T01:09:54;17.10;;;9.75;;
82387;SDS011;72027;47.420;9.310;2024-03-07T01:12:22;16.27;;;10.20;;
82387;SDS011;72027;47.420;9.310;2024-03-07T01:14:53;14.82;;;9.27;;
82387;SDS011;72027;47.420;9.310;2024-03-07T01:17:23;14.98;;;8.50;;
82387;SDS011;72027;47.420;9.310;2024-03-07T01:19:51;11.55;;;6.85;;
82387;SDS011;72027;47.420;9.310;2024-03-07T01:22:21;14.38;;;8.50;;
82387;SDS011;72027;47.420;9.310;2024-03-07T01:24:49;14.63;;;8.68;;
82387;SDS011;72027;47.420;9.310;2024-03-07T01:27:17;13.10;;;7.68;;
82387;SDS011;72027;47.420;9.310;2024-03-07T01:29:45;15.52;;;9.13;;
82387;SDS011;72027;47.420;9.310;2024-03-07T01:32:15;14.55;;;9.27;;
82387;SDS011;72027;47.420;9.310;2024-03-07T01:34:42;16.00;;;9.00;;
82387;SDS011;72027;47.420;9.310;2024-03-07T01:37:10;13.82;;;8.57;;
82387;SDS011;72027;47.420;9.310;2024-03-07T01:39:40;15.77;;;8.40;;
82387;SDS011;72027;47.420;9.310;2024-03-07T01:42:07;15.88;;;10.02;;
82387;SDS011;72027;47.420;9.310;2024-03-07T01:44:35;17.23;;;9.98;;
82387;SDS011;72027;47.420;9.310;2024-03-07T01:47:03;19.23;;;9.82;;
82387;SDS011;72027;47.420;9.310;2024-03-07T01:49:31;17.05;;;9.65;;
82387;SDS011;72027;47.420;9.310;2024-03-07T01:51:59;17.98;;;10.82;;
82387;SDS011;72027;47.420;9.310;2024-03-07T01:54:28;16.33;;;9.82;;
82387;SDS011;72027;47.420;9.310;2024-03-07T01:56:58;16.10;;;9.82;;
82387;SDS011;72027;47.420;9.310;2024-03-07T01:59:26;16.08;;;10.38;;
82387;SDS011;72027;47.420;9.310;2024-03-07T02:01:56;15.02;;;10.30;;
82387;SDS011;72027;47.420;9.310;2024-03-07T02:04:24;17.98;;;10.45;;
82387;SDS011;72027;47.420;9.310;2024-03-07T02:06:52;18.02;;;10.13;;
82387;SDS011;72027;47.420;9.310;2024-03-07T02:09:21;17.38;;;10.18;;
82387;SDS011;72027;47.420;9.310;2024-03-07T02:11:49;18.02;;;10.82;;
82387;SDS011;72027;47.420;9.310;2024-03-07T02:14:18;19.48;;;11.40;;
82387;SDS011;72027;47.420;9.310;2024-03-07T02:16:46;18.20;;;9.50;;
82387;SDS011;72027;47.420;9.310;2024-03-07T02:19:14;17.13;;;9.77;;
82387;SDS011;72027;47.420;9.310;2024-03-07T02:21:43;17.45;;;10.23;;
82387;SDS011;72027;47.420;9.310;2024-03-07T02:24:11;17.35;;;10.65;;
82387;SDS011;72027;47.420;9.310;2024-03-07T02:26:40;14.98;;;9.57;;
82387;SDS011;72027;47.420;9.310;2024-03-07T02:29:08;15.00;;;9.20;;
82387;SDS011;72027;47.420;9.310;2024-03-07T02:31:37;15.10;;;9.43;;
82387;SDS011;72027;47.420;9.310;2024-03-07T02:34:07;15.75;;;9.20;;
82387;SDS011;72027;47.420;9.310;2024-03-07T02:36:35;18.20;;;10.50;;
82387;SDS011;72027;47.420;9.310;2024-03-07T02:39:04;18.10;;;10.27;;
82387;SDS011;72027;47.420;9.310;2024-03-07T02:41:33;16.05;;;10.05;;
82387;SDS011;72027;47.420;9.310;2024-03-07T02:44:01;15.40;;;10.05;;
82387;SDS011;72027;47.420;9.310;2024-03-07T02:46:30;14.13;;;9.23;;
82387;SDS011;72027;47.420;9.310;2024-03-07T02:48:59;13.88;;;9.23;;
82387;SDS011;72027;47.420;9.310;2024-03-07T02:51:27;14.18;;;8.50;;
82387;SDS011;72027;47.420;9.310;2024-03-07T02:53:55;15.15;;;9.00;;
82387;SDS011;72027;47.420;9.310;2024-03-07T02:56:24;13.10;;;7.88;;
82387;SDS011;72027;47.420;9.310;2024-03-07T02:58:52;14.27;;;8.85;;
82387;SDS011;72027;47.420;9.310;2024-03-07T03:01:20;14.93;;;8.98;;
82387;SDS011;72027;47.420;9.310;2024-03-07T03:03:47;12.88;;;8.65;;
82387;SDS011;72027;47.420;9.310;2024-03-07T03:06:15;14.40;;;9.05;;
82387;SDS011;72027;47.420;9.310;2024-03-07T03:08:43;12.88;;;7.35;;
82387;SDS011;72027;47.420;9.310;2024-03-07T03:11:11;16.48;;;10.05;;
82387;SDS011;72027;47.420;9.310;2024-03-07T03:13:41;13.13;;;7.88;;
82387;SDS011;72027;47.420;9.310;2024-03-07T03:16:10;11.73;;;8.15;;
82387;SDS011;72027;47.420;9.310;2024-03-07T03:18:37;14.13;;;8.82;;
82387;SDS011;72027;47.420;9.310;2024-03-07T03:21:05;12.70;;;8.27;;
82387;SDS011;72027;47.420;9.310;2024-03-07T03:23:34;14.73;;;8.55;;
82387;SDS011;72027;47.420;9.310;2024-03-07T03:26:02;12.25;;;7.45;;
82387;SDS011;72027;47.420;9.310;2024-03-07T03:28:30;11.63;;;8.63;;
82387;SDS011;72027;47.420;9.310;2024-03-07T03:30:59;12.82;;;8.07;;
82387;SDS011;72027;47.420;9.310;2024-03-07T03:33:27;16.98;;;9.63;;
82387;SDS011;72027;47.420;9.310;2024-03-07T03:35:55;14.43;;;9.10;;
82387;SDS011;72027;47.420;9.310;2024-03-07T03:38:22;15.10;;;8.70;;
82387;SDS011;72027;47.420;9.310;2024-03-07T03:40:51;13.90;;;9.35;;
82387;SDS011;72027;47.420;9.310;2024-03-07T03:43:19;17.80;;;10.18;;
82387;SDS011;72027;47.420;9.310;2024-03-07T03:45:47;19.40;;;10.98;;
82387;SDS011;72027;47.420;9.310;2024-03-07T03:48:15;15.63;;;9.15;;
82387;SDS011;72027;47.420;9.310;2024-03-07T03:50:44;15.32;;;9.32;;
82387;SDS011;72027;47.420;9.310;2024-03-07T03:53:13;16.73;;;9.93;;
82387;SDS011;72027;47.420;9.310;2024-03-07T03:55:41;16.25;;;10.05;;
82387;SDS011;72027;47.420;9.310;2024-03-07T03:58:09;14.85;;;8.88;;
82387;SDS011;72027;47.420;9.310;2024-03-07T04:00:36;12.07;;;7.85;;
82387;SDS011;72027;47.420;9.310;2024-03-07T04:03:05;14.43;;;8.63;;
82387;SDS011;72027;47.420;9.310;2024-03-07T04:05:34;16.90;;;10.32;;
82387;SDS011;72027;47.420;9.310;2024-03-07T04:08:02;17.77;;;10.55;;
82387;SDS011;72027;47.420;9.310;2024-03-07T04:10:31;19.95;;;11.75;;
82387;SDS011;72027;47.420;9.310;2024-03-07T04:12:59;19.70;;;12.05;;
82387;SDS011;72027;47.420;9.310;2024-03-07T04:15:27;23.00;;;12.98;;
82387;SDS011;72027;47.420;9.310;2024-03-07T04:17:59;20.48;;;11.68;;
82387;SDS011;72027;47.420;9.310;2024-03-07T04:20:28;22.17;;;12.45;;
82387;SDS011;72027;47.420;9.310;2024-03-07T04:22:57;20.50;;;12.23;;
82387;SDS011;72027;47.420;9.310;2024-03-07T04:25:25;24.48;;;14.23;;
82387;SDS011;72027;47.420;9.310;2024-03-07T04:27:54;19.33;;;11.80;;
82387;SDS011;72027;47.420;9.310;2024-03-07T04:30:22;24.98;;;14.57;;
82387;SDS011;72027;47.420;9.310;2024-03-07T04:32:50;23.40;;;14.25;;
82387;SDS011;72027;47.420;9.310;2024-03-07T04:35:18;24.48;;;13.40;;
82387;SDS011;72027;47.420;9.310;2024-03-07T04:37:46;23.30;;;14.15;;
82387;SDS011;72027;47.420;9.310;2024-03-07T04:40:15;25.70;;;14.00;;
82387;SDS011;72027;47.420;9.310;2024-03-07T04:42:44;24.88;;;14.50;;
82387;SDS011;72027;47.420;9.310;2024-03-07T04:45:13;26.58;;;14.00;;
82387;SDS011;72027;47.420;9.310;2024-03-07T04:47:41;24.77;;;15.57;;
82387;SDS011;72027;47.420;9.310;2024-03-07T04:50:11;31.40;;;16.33;;
82387;SDS011;72027;47.420;9.310;2024-03-07T04:52:39;30.70;;;17.45;;
82387;SDS011;72027;47.420;9.310;2024-03-07T04:55:08;32.22;;;17.40;;
82387;SDS011;72027;47.420;9.310;2024-03-07T04:57:39;30.23;;;16.73;;
82387;SDS011;72027;47.420;9.310;2024-03-07T05:00:08;30.05;;;17.17;;
82387;SDS011;72027;47.420;9.310;2024-03-07T05:02:40;34.45;;;17.17;;
82387;SDS011;72027;47.420;9.310;2024-03-07T05:05:08;33.65;;;16.42;;
82387;SDS011;72027;47.420;9.310;2024-03-07T05:07:36;33.83;;;19.60;;
82387;SDS011;72027;47.420;9.310;2024-03-07T05:10:04;32.80;;;18.60;;
82387;SDS011;72027;47.420;9.310;2024-03-07T05:12:33;34.90;;;17.80;;
82387;SDS011;72027;47.420;9.310;2024-03-07T05:15:04;30.25;;;16.63;;
82387;SDS011;72027;47.420;9.310;2024-03-07T05:17:36;33.80;;;17.17;;
82387;SDS011;72027;47.420;9.310;2024-03-07T05:20:05;28.83;;;15.50;;
82387;SDS011;72027;47.420;9.310;2024-03-07T05:22:36;31.50;;;17.13;;
82387;SDS011;72027;47.420;9.310;2024-03-07T05:25:07;37.30;;;18.92;;
82387;SDS011;72027;47.420;9.310;2024-03-07T05:27:35;34.97;;;17.88;;
82387;SDS011;72027;47.420;9.310;2024-03-07T05:30:05;32.55;;;16.60;;
82387;SDS011;72027;47.420;9.310;2024-03-07T05:32:36;29.95;;;17.35;;
82387;SDS011;72027;47.420;9.310;2024-03-07T05:35:05;31.25;;;16.23;;
82387;SDS011;72027;47.420;9.310;2024-03-07T05:37:33;30.63;;;16.23;;
82387;SDS011;72027;47.420;9.310;2024-03-07T05:40:01;27.23;;;15.27;;
82387;SDS011;72027;47.420;9.310;2024-03-07T05:42:30;29.30;;;14.93;;
82387;SDS011;72027;47.420;9.310;2024-03-07T05:44:58;25.70;;;14.23;;
82387;SDS011;72027;47.420;9.310;2024-03-07T05:47:27;28.02;;;15.45;;
82387;SDS011;72027;47.420;9.310;2024-03-07T05:49:55;32.33;;;17.55;;
82387;SDS011;72027;47.420;9.310;2024-03-07T05:52:23;33.45;;;16.45;;
82387;SDS011;72027;47.420;9.310;2024-03-07T05:54:51;27.58;;;14.73;;
82387;SDS011;72027;47.420;9.310;2024-03-07T05:57:19;29.00;;;15.88;;
82387;SDS011;72027;47.420;9.310;2024-03-07T05:59:46;27.73;;;14.82;;
82387;SDS011;72027;47.420;9.310;2024-03-07T06:02:15;27.70;;;15.18;;
82387;SDS011;72027;47.420;9.310;2024-03-07T06:04:44;30.65;;;15.57;;
82387;SDS011;72027;47.420;9.310;2024-03-07T06:07:12;29.13;;;15.15;;
82387;SDS011;72027;47.420;9.310;2024-03-07T06:09:39;29.60;;;15.60;;
82387;SDS011;72027;47.420;9.310;2024-03-07T06:12:08;28.25;;;15.68;;
82387;SDS011;72027;47.420;9.310;2024-03-07T06:14:41;29.02;;;16.55;;
82387;SDS011;72027;47.420;9.310;2024-03-07T06:17:09;27.23;;;15.65;;
82387;SDS011;72027;47.420;9.310;2024-03-07T06:19:37;26.52;;;14.20;;
82387;SDS011;72027;47.420;9.310;2024-03-07T06:22:06;27.10;;;13.82;;
82387;SDS011;72027;47.420;9.310;2024-03-07T06:24:35;27.90;;;15.73;;
82387;SDS011;72027;47.420;9.310;2024-03-07T06:27:03;29.67;;;15.20;;
82387;SDS011;72027;47.420;9.310;2024-03-07T06:29:42;27.88;;;15.07;;
82387;SDS011;72027;47.420;9.310;2024-03-07T06:32:09;26.20;;;14.15;;
82387;SDS011;72027;47.420;9.310;2024-03-07T06:34:38;28.40;;;15.25;;
82387;SDS011;72027;47.420;9.310;2024-03-07T06:37:07;34.70;;;13.48;;
82387;SDS011;72027;47.420;9.310;2024-03-07T06:39:35;25.85;;;13.70;;
82387;SDS011;72027;47.420;9.310;2024-03-07T06:42:03;19.85;;;10.98;;
82387;SDS011;72027;47.420;9.310;2024-03-07T06:44:32;24.08;;;13.52;;
82387;SDS011;72027;47.420;9.310;2024-03-07T06:46:59;26.00;;;13.90;;
82387;SDS011;72027;47.420;9.310;2024-03-07T06:49:27;25.42;;;12.90;;
82387;SDS011;72027;47.420;9.310;2024-03-07T06:51:56;22.70;;;12.27;;
82387;SDS011;72027;47.420;9.310;2024-03-07T06:54:25;25.83;;;13.73;;
82387;SDS011;72027;47.420;9.310;2024-03-07T06:56:52;23.25;;;12.75;;
82387;SDS011;72027;47.420;9.310;2024-03-07T06:59:20;25.63;;;12.95;;
82387;SDS011;72027;47.420;9.310;2024-03-07T07:01:48;25.48;;;12.52;;
82387;SDS011;72027;47.420;9.310;2024-03-07T07:04:17;25.10;;;12.10;;
82387;SDS011;72027;47.420;9.310;2024-03-07T07:06:46;22.50;;;12.23;;
82387;SDS011;72027;47.420;9.310;2024-03-07T07:09:13;24.42;;;12.73;;
82387;SDS011;72027;47.420;9.310;2024-03-07T07:11:46;23.77;;;12.52;;
82387;SDS011;72027;47.420;9.310;2024-03-07T07:14:14;25.83;;;13.57;;
82387;SDS011;72027;47.420;9.310;2024-03-07T07:16:44;25.35;;;13.43;;
82387;SDS011;72027;47.420;9.310;2024-03-07T07:19:12;23.15;;;12.63;;
82387;SDS011;72027;47.420;9.310;2024-03-07T07:21:40;29.70;;;14.30;;
82387;SDS011;72027;47.420;9.310;2024-03-07T07:24:08;37.90;;;15.55;;
82387;SDS011;72027;47.420;9.310;2024-03-07T07:26:37;28.23;;;15.30;;
82387;SDS011;72027;47.420;9.310;2024-03-07T07:29:06;30.50;;;14.90;;
82387;SDS011;72027;47.420;9.310;2024-03-07T07:31:34;22.17;;;12.32;;
82387;SDS011;72027;47.420;9.310;2024-03-07T07:34:02;23.45;;;12.15;;
82387;SDS011;72027;47.420;9.310;2024-03-07T07:36:30;21.27;;;10.82;;
82387;SDS011;72027;47.420;9.310;2024-03-07T07:38:58;22.10;;;12.10;;
82387;SDS011;72027;47.420;9.310;2024-03-07T07:41:26;19.20;;;10.23;;
82387;SDS011;72027;47.420;9.310;2024-03-07T07:43:54;27.00;;;13.43;;
82387;SDS011;72027;47.420;9.310;2024-03-07T07:46:24;24.65;;;12.45;;
82387;SDS011;72027;47.420;9.310;2024-03-07T07:48:51;21.75;;;13.60;;
82387;SDS011;72027;47.420;9.310;2024-03-07T07:51:19;24.65;;;12.80;;
82387;SDS011;72027;47.420;9.310;2024-03-07T07:53:47;21.67;;;11.48;;
82387;SDS011;72027;47.420;9.310;2024-03-07T07:56:15;20.83;;;10.27;;
82387;SDS011;72027;47.420;9.310;2024-03-07T07:58:43;16.00;;;9.77;;
82387;SDS011;72027;47.420;9.310;2024-03-07T08:01:11;21.27;;;10.80;;
82387;SDS011;72027;47.420;9.310;2024-03-07T08:03:42;19.23;;;10.77;;
82387;SDS011;72027;47.420;9.310;2024-03-07T08:06:10;18.55;;;11.43;;
82387;SDS011;72027;47.420;9.310;2024-03-07T08:08:38;18.00;;;10.98;;
82387;SDS011;72027;47.420;9.310;2024-03-07T08:11:05;18.67;;;10.02;;
82387;SDS011;72027;47.420;9.310;2024-03-07T08:13:34;23.38;;;11.60;;
82387;SDS011;72027;47.420;9.310;2024-03-07T08:16:03;17.02;;;10.52;;
82387;SDS011;72027;47.420;9.310;2024-03-07T08:18:31;17.98;;;10.07;;
82387;SDS011;72027;47.420;9.310;2024-03-07T08:21:01;19.42;;;9.75;;
82387;SDS011;72027;47.420;9.310;2024-03-07T08:23:29;16.48;;;9.80;;
82387;SDS011;72027;47.420;9.310;2024-03-07T08:25:57;16.08;;;10.25;;
82387;SDS011;72027;47.420;9.310;2024-03-07T08:28:25;17.80;;;11.13;;
82387;SDS011;72027;47.420;9.310;2024-03-07T08:30:53;14.70;;;9.15;;
82387;SDS011;72027;47.420;9.310;2024-03-07T08:33:21;17.50;;;10.55;;
82387;SDS011;72027;47.420;9.310;2024-03-07T08:35:49;19.38;;;10.73;;
82387;SDS011;72027;47.420;9.310;2024-03-07T08:38:20;16.30;;;9.85;;
82387;SDS011;72027;47.420;9.310;2024-03-07T08:40:48;16.15;;;9.45;;
82387;SDS011;72027;47.420;9.310;2024-03-07T08:43:16;15.88;;;9.77;;
82387;SDS011;72027;47.420;9.310;2024-03-07T08:45:44;17.60;;;9.68;;
82387;SDS011;72027;47.420;9.310;2024-03-07T08:48:12;16.02;;;10.40;;
82387;SDS011;72027;47.420;9.310;2024-03-07T08:50:41;17.10;;;10.57;;
82387;SDS011;72027;47.420;9.310;2024-03-07T08:53:08;15.43;;;9.43;;
82387;SDS011;72027;47.420;9.310;2024-03-07T08:55:38;22.50;;;10.10;;
82387;SDS011;72027;47.420;9.310;2024-03-07T08:58:05;17.08;;;9.90;;
82387;SDS011;72027;47.420;9.310;2024-03-07T09:00:34;18.02;;;10.15;;
82387;SDS011;72027;47.420;9.310;2024-03-07T09:03:04;17.58;;;11.05;;
82387;SDS011;72027;47.420;9.310;2024-03-07T09:05:36;19.52;;;10.60;;
82387;SDS011;72027;47.420;9.310;2024-03-07T09:08:04;15.80;;;9.95;;
82387;SDS011;72027;47.420;9.310;2024-03-07T09:10:33;17.45;;;10.73;;
82387;SDS011;72027;47.420;9.310;2024-03-07T09:13:03;17.25;;;10.00;;
82387;SDS011;72027;47.420;9.310;2024-03-07T09:15:32;17.88;;;11.57;;
82387;SDS011;72027;47.420;9.310;2024-03-07T09:18:02;16.13;;;9.93;;
82387;SDS011;72027;47.420;9.310;2024-03-07T09:20:31;20.52;;;10.32;;
82387;SDS011;72027;47.420;9.310;2024-03-07T09:22:59;17.58;;;10.55;;
82387;SDS011;72027;47.420;9.310;2024-03-07T09:25:27;17.70;;;10.75;;
82387;SDS011;72027;47.420;9.310;2024-03-07T09:27:59;19.27;;;11.27;;
82387;SDS011;72027;47.420;9.310;2024-03-07T09:30:29;17.88;;;10.50;;
82387;SDS011;72027;47.420;9.310;2024-03-07T09:32:57;17.60;;;10.05;;
82387;SDS011;72027;47.420;9.310;2024-03-07T09:35:25;18.20;;;10.77;;
82387;SDS011;72027;47.420;9.310;2024-03-07T09:37:53;21.30;;;11.23;;
82387;SDS011;72027;47.420;9.310;2024-03-07T09:40:21;16.42;;;11.07;;
82387;SDS011;72027;47.420;9.310;2024-03-07T09:42:51;21.63;;;11.35;;
82387;SDS011;72027;47.420;9.310;2024-03-07T09:45:21;20.67;;;11.70;;
82387;SDS011;72027;47.420;9.310;2024-03-07T09:47:51;17.65;;;11.55;;
82387;SDS011;72027;47.420;9.310;2024-03-07T09:50:21;19.38;;;12.15;;
82387;SDS011;72027;47.420;9.310;2024-03-07T09:52:51;17.45;;;10.82;;
82387;SDS011;72027;47.420;9.310;2024-03-07T09:55:20;19.02;;;10.98;;
82387;SDS011;72027;47.420;9.310;2024-03-07T09:57:50;19.23;;;11.93;;
82387;SDS011;72027;47.420;9.310;2024-03-07T10:00:19;16.77;;;10.68;;
82387;SDS011;72027;47.420;9.310;2024-03-07T10:02:56;15.35;;;10.05;;
82387;SDS011;72027;47.420;9.310;2024-03-07T10:05:26;16.35;;;10.32;;
82387;SDS011;72027;47.420;9.310;2024-03-07T10:07:56;19.77;;;10.52;;
82387;SDS011;72027;47.420;9.310;2024-03-07T10:10:24;18.33;;;10.85;;
82387;SDS011;72027;47.420;9.310;2024-03-07T10:12:52;15.85;;;9.98;;
82387;SDS011;72027;47.420;9.310;2024-03-07T10:15:20;16.23;;;9.35;;
82387;SDS011;72027;47.420;9.310;2024-03-07T10:17:49;12.85;;;9.00;;
82387;SDS011;72027;47.420;9.310;2024-03-07T10:20:19;15.45;;;8.95;;
82387;SDS011;72027;47.420;9.310;2024-03-07T10:22:48;12.77;;;8.40;;
82387;SDS011;72027;47.420;9.310;2024-03-07T10:25:16;14.20;;;9.13;;
82387;SDS011;72027;47.420;9.310;2024-03-07T10:27:45;16.08;;;9.23;;
82387;SDS011;72027;47.420;9.310;2024-03-07T10:30:15;17.15;;;9.00;;
82387;SDS011;72027;47.420;9.310;2024-03-07T10:32:47;17.77;;;9.55;;
82387;SDS011;72027;47.420;9.310;2024-03-07T10:35:21;15.57;;;9.13;;
82387;SDS011;72027;47.420;9.310;2024-03-07T10:37:52;14.70;;;8.48;;
82387;SDS011;72027;47.420;9.310;2024-03-07T10:40:21;17.77;;;9.48;;
82387;SDS011;72027;47.420;9.310;2024-03-07T10:42:53;16.40;;;8.77;;
82387;SDS011;72027;47.420;9.310;2024-03-07T10:45:24;17.17;;;9.50;;
82387;SDS011;72027;47.420;9.310;2024-03-07T10:47:57;18.35;;;9.45;;
82387;SDS011;72027;47.420;9.310;2024-03-07T10:50:33;17.67;;;10.75;;
82387;SDS011;72027;47.420;9.310;2024-03-07T10:53:14;21.98;;;11.32;;
82387;SDS011;72027;47.420;9.310;2024-03-07T10:55:49;20.60;;;11.30;;
82387;SDS011;72027;47.420;9.310;2024-03-07T10:58:28;18.30;;;10.57;;
82387;SDS011;72027;47.420;9.310;2024-03-07T11:01:04;19.15;;;10.73;;
82387;SDS011;72027;47.420;9.310;2024-03-07T11:03:33;21.60;;;11.10;;
82387;SDS011;72027;47.420;9.310;2024-03-07T11:06:04;23.58;;;12.05;;
82387;SDS011;72027;47.420;9.310;2024-03-07T11:08:38;21.25;;;12.20;;
82387;SDS011;72027;47.420;9.310;2024-03-07T11:11:06;27.50;;;13.93;;
82387;SDS011;72027;47.420;9.310;2024-03-07T11:13:35;25.20;;;13.68;;
82387;SDS011;72027;47.420;9.310;2024-03-07T11:16:03;25.75;;;13.75;;
82387;SDS011;72027;47.420;9.310;2024-03-07T11:18:33;25.70;;;12.40;;
82387;SDS011;72027;47.420;9.310;2024-03-07T11:21:01;25.00;;;13.13;;
82387;SDS011;72027;47.420;9.310;2024-03-07T11:23:32;29.90;;;12.55;;
82387;SDS011;72027;47.420;9.310;2024-03-07T11:26:05;24.95;;;12.02;;
82387;SDS011;72027;47.420;9.310;2024-03-07T11:28:35;22.17;;;11.90;;
82387;SDS011;72027;47.420;9.310;2024-03-07T11:31:08;25.83;;;13.68;;
82387;SDS011;72027;47.420;9.310;2024-03-07T11:33:39;26.50;;;11.88;;
82387;SDS011;72027;47.420;9.310;2024-03-07T11:36:08;24.48;;;12.18;;
82387;SDS011;72027;47.420;9.310;2024-03-07T11:38:39;22.00;;;12.15;;
82387;SDS011;72027;47.420;9.310;2024-03-07T11:41:12;22.80;;;11.90;;
82387;SDS011;72027;47.420;9.310;2024-03-07T11:43:40;23.83;;;11.60;;
82387;SDS011;72027;47.420;9.310;2024-03-07T11:46:09;21.00;;;11.75;;
82387;SDS011;72027;47.420;9.310;2024-03-07T11:48:43;23.40;;;11.10;;
82387;SDS011;72027;47.420;9.310;2024-03-07T11:51:12;22.75;;;11.38;;
82387;SDS011;72027;47.420;9.310;2024-03-07T11:53:43;20.60;;;11.30;;
82387;SDS011;72027;47.420;9.310;2024-03-07T11:56:14;21.83;;;12.85;;
82387;SDS011;72027;47.420;9.310;2024-03-07T11:58:44;23.48;;;12.77;;
82387;SDS011;72027;47.420;9.310;2024-03-07T12:01:18;24.35;;;13.70;;
82387;SDS011;72027;47.420;9.310;2024-03-07T12:03:51;24.38;;;12.25;;
82387;SDS011;72027;47.420;9.310;2024-03-07T12:06:22;27.33;;;12.70;;
82387;SDS011;72027;47.420;9.310;2024-03-07T12:08:51;24.70;;;13.88;;
82387;SDS011;72027;47.420;9.310;2024-03-07T12:11:19;23.08;;;12.23;;
82387;SDS011;72027;47.420;9.310;2024-03-07T12:13:47;25.58;;;12.73;;
82387;SDS011;72027;47.420;9.310;2024-03-07T12:16:18;32.78;;;11.88;;
82387;SDS011;72027;47.420;9.310;2024-03-07T12:18:47;22.52;;;11.40;;
82387;SDS011;72027;47.420;9.310;2024-03-07T12:21:15;21.92;;;10.57;;
82387;SDS011;72027;47.420;9.310;2024-03-07T12:23:43;19.63;;;10.68;;
82387;SDS011;72027;47.420;9.310;2024-03-07T12:26:19;19.65;;;11.13;;
82387;SDS011;72027;47.420;9.310;2024-03-07T12:28:51;19.33;;;10.65;;
82387;SDS011;72027;47.420;9.310;2024-03-07T12:31:19;19.25;;;11.73;;
82387;SDS011;72027;47.420;9.310;2024-03-07T12:33:51;25.33;;;12.90;;
82387;SDS011;72027;47.420;9.310;2024-03-07T12:36:19;25.13;;;12.65;;
82387;SDS011;72027;47.420;9.310;2024-03-07T12:38:52;25.00;;;11.77;;
82387;SDS011;72027;47.420;9.310;2024-03-07T12:41:22;23.10;;;11.60;;
82387;SDS011;72027;47.420;9.310;2024-03-07T12:43:50;21.58;;;11.20;;
82387;SDS011;72027;47.420;9.310;2024-03-07T12:46:18;16.90;;;9.48;;
82387;SDS011;72027;47.420;9.310;2024-03-07T12:48:46;20.88;;;9.25;;
82387;SDS011;72027;47.420;9.310;2024-03-07T12:51:16;20.08;;;9.65;;
82387;SDS011;72027;47.420;9.310;2024-03-07T12:53:45;19.05;;;10.15;;
82387;SDS011;72027;47.420;9.310;2024-03-07T12:56:14;18.98;;;9.82;;
82387;SDS011;72027;47.420;9.310;2024-03-07T12:58:46;19.73;;;10.38;;
82387;SDS011;72027;47.420;9.310;2024-03-07T13:01:16;26.00;;;11.10;;
82387;SDS011;72027;47.420;9.310;2024-03-07T13:03:46;18.98;;;10.75;;
82387;SDS011;72027;47.420;9.310;2024-03-07T13:06:14;16.58;;;9.65;;
82387;SDS011;72027;47.420;9.310;2024-03-07T13:08:45;18.65;;;9.93;;
82387;SDS011;72027;47.420;9.310;2024-03-07T13:11:13;20.13;;;11.38;;
82387;SDS011;72027;47.420;9.310;2024-03-07T13:13:42;21.30;;;11.38;;
82387;SDS011;72027;47.420;9.310;2024-03-07T13:16:11;24.63;;;12.45;;
82387;SDS011;72027;47.420;9.310;2024-03-07T13:18:39;21.95;;;12.43;;
82387;SDS011;72027;47.420;9.310;2024-03-07T13:21:07;22.35;;;10.85;;
82387;SDS011;72027;47.420;9.310;2024-03-07T13:23:37;20.25;;;10.40;;
82387;SDS011;72027;47.420;9.310;2024-03-07T13:26:06;19.65;;;9.68;;
82387;SDS011;72027;47.420;9.310;2024-03-07T13:28:43;22.17;;;10.73;;
82387;SDS011;72027;47.420;9.310;2024-03-07T13:31:13;19.02;;;10.27;;
82387;SDS011;72027;47.420;9.310;2024-03-07T13:33:43;25.55;;;11.75;;
82387;SDS011;72027;47.420;9.310;2024-03-07T13:36:12;27.65;;;12.32;;
82387;SDS011;72027;47.420;9.310;2024-03-07T13:38:41;27.02;;;13.35;;
82387;SDS011;72027;47.420;9.310;2024-03-07T13:41:09;27.17;;;14.13;;
82387;SDS011;72027;47.420;9.310;2024-03-07T13:43:38;29.88;;;14.95;;
82387;SDS011;72027;47.420;9.310;2024-03-07T13:46:06;26.70;;;13.80;;
82387;SDS011;72027;47.420;9.310;2024-03-07T13:48:35;25.98;;;12.70;;
82387;SDS011;72027;47.420;9.310;2024-03-07T13:51:03;28.33;;;13.63;;
82387;SDS011;72027;47.420;9.310;2024-03-07T13:53:34;27.70;;;14.10;;
82387;SDS011;72027;47.420;9.310;2024-03-07T13:56:23;29.40;;;13.73;;
82387;SDS011;72027;47.420;9.310;2024-03-07T14:02:02;26.50;;;12.88;;
82387;SDS011;72027;47.420;9.310;2024-03-07T14:04:47;32.80;;;13.93;;
82387;SDS011;72027;47.420;9.310;2024-03-07T14:07:44;32.92;;;14.98;;
82387;SDS011;72027;47.420;9.310;2024-03-07T14:10:33;29.25;;;15.15;;
82387;SDS011;72027;47.420;9.310;2024-03-07T14:13:39;33.33;;;14.93;;
82387;SDS011;72027;47.420;9.310;2024-03-07T14:16:34;32.72;;;14.82;;
82387;SDS011;72027;47.420;9.310;2024-03-07T14:22:29;31.70;;;14.73;;
82387;SDS011;72027;47.420;9.310;2024-03-07T14:27:54;31.98;;;15.90;;
82387;SDS011;72027;47.420;9.310;2024-03-07T14:30:40;29.80;;;14.75;;
82387;SDS011;72027;47.420;9.310;2024-03-07T14:33:17;32.03;;;15.48;;
82387;SDS011;72027;47.420;9.310;2024-03-07T14:35:59;32.97;;;15.52;;
82387;SDS011;72027;47.420;9.310;2024-03-07T14:38:40;31.23;;;14.70;;
82387;SDS011;72027;47.420;9.310;2024-03-07T14:41:13;29.17;;;14.85;;
82387;SDS011;72027;47.420;9.310;2024-03-07T14:43:43;30.70;;;15.07;;
82387;SDS011;72027;47.420;9.310;2024-03-07T14:46:11;32.88;;;14.70;;
82387;SDS011;72027;47.420;9.310;2024-03-07T14:48:41;27.92;;;16.00;;